createdAt,value
2022-09-20T00:01:29.909Z,1.65
2022-09-20T00:03:59.255Z,1.58
2022-09-20T00:06:28.851Z,1.00
2022-09-20T00:08:56.602Z,1.10
2022-09-20T00:11:26.939Z,1.23
2022-09-20T00:13:56.106Z,1.58
2022-09-20T00:16:32.451Z,1.65
2022-09-20T00:19:03.689Z,1.60
2022-09-20T00:21:32.149Z,1.67
2022-09-20T00:26:27.086Z,1.73
2022-09-20T00:28:54.586Z,2.33
2022-09-20T00:31:21.459Z,1.88
2022-09-20T00:34:06.902Z,2.15
2022-09-20T00:36:33.553Z,2.30
2022-09-20T00:39:02.644Z,1.55
2022-09-20T00:41:31.126Z,2.58
2022-09-20T00:46:48.522Z,1.63
2022-09-20T00:49:20.347Z,1.55
2022-09-20T00:51:51.770Z,1.63
2022-09-20T00:54:21.331Z,2.00
2022-09-20T00:56:48.666Z,1.30
2022-09-20T00:59:49.214Z,1.88
2022-09-20T01:02:23.248Z,2.55
2022-09-20T01:04:50.377Z,2.70
2022-09-20T01:07:22.188Z,1.35
2022-09-20T01:09:49.262Z,2.17
2022-09-20T01:12:21.967Z,1.40
2022-09-20T01:14:51.178Z,1.67
2022-09-20T01:17:19.950Z,1.23
2022-09-20T01:20:18.576Z,1.90
2022-09-20T01:23:22.897Z,1.88
2022-09-20T01:26:08.367Z,1.60
2022-09-20T01:28:35.706Z,1.50
2022-09-20T01:31:26.381Z,2.28
2022-09-20T01:33:54.274Z,1.35
2022-09-20T01:36:26.211Z,1.80
2022-09-20T01:39:22.308Z,1.40
2022-09-20T01:41:52.748Z,1.88
2022-09-20T01:44:40.803Z,1.65
2022-09-20T01:47:41.416Z,1.33
2022-09-20T01:53:31.935Z,1.40
2022-09-20T01:56:23.242Z,1.42
2022-09-20T01:59:23.071Z,1.88
2022-09-20T02:01:53.233Z,2.05
2022-09-20T02:04:25.963Z,1.80
2022-09-20T02:07:03.002Z,1.80
2022-09-20T02:09:44.762Z,2.50
2022-09-20T02:12:36.243Z,1.50
2022-09-20T02:15:29.846Z,1.73
2022-09-20T02:18:30.606Z,1.40
2022-09-20T02:21:05.289Z,1.52
2022-09-20T02:24:04.195Z,1.48
2022-09-20T02:26:46.160Z,1.65
2022-09-20T02:29:32.435Z,1.85
2022-09-20T02:32:40.394Z,1.40
2022-09-20T02:35:22.468Z,1.13
2022-09-20T02:37:52.021Z,1.92
2022-09-20T02:40:46.785Z,2.20
2022-09-20T02:43:13.246Z,1.60
2022-09-20T02:46:22.590Z,1.30
2022-09-20T02:49:03.064Z,1.55
2022-09-20T02:52:10.972Z,1.77
2022-09-20T02:55:07.721Z,1.40
2022-09-20T02:57:37.265Z,1.80
2022-09-20T03:00:13.365Z,1.98
2022-09-20T03:03:01.876Z,2.03
2022-09-20T03:05:48.895Z,1.33
2022-09-20T03:08:38.506Z,1.65
2022-09-20T03:11:44.066Z,1.50
2022-09-20T03:14:40.089Z,1.65
2022-09-20T03:17:42.504Z,1.40
2022-09-20T03:20:34.476Z,1.23
2022-09-20T03:23:31.538Z,1.25
2022-09-20T03:26:16.613Z,1.40
2022-09-20T03:29:04.729Z,1.50
2022-09-20T03:31:50.270Z,1.00
2022-09-20T03:34:27.386Z,2.00
2022-09-20T03:37:01.732Z,1.23
2022-09-20T03:39:37.375Z,1.30
2022-09-20T03:42:29.239Z,1.40
2022-09-20T03:45:07.960Z,1.52
2022-09-20T03:48:02.424Z,1.35
2022-09-20T03:50:51.423Z,1.77
2022-09-20T03:53:24.068Z,1.95
2022-09-20T03:56:12.545Z,1.20
2022-09-20T03:58:45.190Z,2.15
2022-09-20T04:01:34.954Z,2.22
2022-09-20T04:04:12.484Z,2.00
2022-09-20T04:07:06.466Z,1.88
2022-09-20T04:12:19.584Z,1.50
2022-09-20T04:15:05.091Z,1.65
2022-09-20T04:17:43.325Z,1.50
2022-09-20T04:20:21.120Z,1.45
2022-09-20T04:22:51.403Z,1.80
2022-09-20T04:25:23.223Z,1.83
2022-09-20T04:28:05.957Z,1.48
2022-09-20T04:30:43.814Z,2.08
2022-09-20T04:33:25.079Z,1.55
2022-09-20T04:36:30.286Z,1.63
2022-09-20T04:39:10.386Z,1.38
2022-09-20T04:42:30.220Z,2.65
2022-09-20T04:45:07.903Z,1.55
2022-09-20T04:47:53.133Z,1.60
2022-09-20T04:50:50.500Z,2.00
2022-09-20T04:53:23.084Z,1.70
2022-09-20T04:56:14.654Z,1.85
2022-09-20T04:58:44.369Z,1.70
2022-09-20T05:01:17.617Z,2.67
2022-09-20T05:04:22.694Z,2.10
2022-09-20T05:07:04.585Z,2.95
2022-09-20T05:09:43.449Z,1.98
2022-09-20T05:12:37.913Z,1.63
2022-09-20T05:15:30.638Z,2.40
2022-09-20T05:18:06.429Z,2.10
2022-09-20T05:20:43.559Z,1.88
2022-09-20T05:23:32.346Z,1.58
2022-09-20T05:26:29.574Z,2.20
2022-09-20T05:29:14.378Z,2.15
2022-09-20T05:31:49.695Z,1.77
2022-09-20T05:34:42.467Z,2.22
2022-09-20T05:37:40.054Z,2.13
2022-09-20T05:40:16.354Z,2.22
2022-09-20T05:43:08.801Z,1.95
2022-09-20T05:45:48.141Z,2.70
2022-09-20T05:48:20.218Z,1.90
2022-09-20T05:51:01.683Z,2.47
2022-09-20T05:53:36.242Z,2.20
2022-09-20T05:56:16.806Z,3.47
2022-09-20T05:58:52.611Z,1.63
2022-09-20T06:01:26.792Z,2.40
2022-09-20T06:04:12.082Z,2.50
2022-09-20T06:06:49.798Z,2.35
2022-09-20T06:10:00.033Z,1.75
2022-09-20T06:12:53.908Z,2.45
2022-09-20T06:15:33.201Z,2.55
2022-09-20T06:18:21.836Z,1.77
2022-09-20T06:21:16.450Z,1.95
2022-09-20T06:23:43.756Z,1.95
2022-09-20T06:26:19.762Z,2.08
2022-09-20T06:28:58.129Z,1.88
2022-09-20T06:31:28.277Z,2.63
2022-09-20T06:34:03.259Z,1.95
2022-09-20T06:40:41.082Z,1.55
2022-09-20T06:45:34.479Z,1.33
2022-09-20T06:48:02.220Z,2.00
2022-09-20T06:50:28.842Z,2.33
2022-09-20T06:52:55.587Z,2.10
2022-09-20T06:55:29.445Z,2.10
2022-09-20T06:57:57.123Z,2.53
2022-09-20T07:00:24.367Z,1.42
2022-09-20T07:03:08.359Z,2.47
2022-09-20T07:09:12.622Z,2.05
2022-09-20T07:11:39.465Z,1.95
2022-09-20T07:14:07.466Z,1.70
2022-09-20T07:16:36.205Z,1.00
2022-09-20T07:19:05.290Z,1.33
2022-09-20T07:21:32.178Z,1.42
2022-09-20T07:23:58.741Z,1.63
2022-09-20T07:26:28.433Z,1.85
2022-09-20T07:28:55.930Z,1.63
2022-09-20T07:31:24.649Z,2.05
2022-09-20T07:33:51.591Z,1.55
2022-09-20T07:36:18.464Z,1.48
2022-09-20T07:38:50.634Z,0.95
2022-09-20T07:41:19.051Z,1.40
2022-09-20T07:43:46.787Z,1.88
2022-09-20T07:46:13.670Z,1.20
2022-09-20T07:48:41.112Z,1.27
2022-09-20T07:51:12.863Z,2.05
2022-09-20T07:53:40.333Z,1.25
2022-09-20T07:56:15.300Z,1.30
2022-09-20T07:58:48.627Z,1.00
2022-09-20T08:01:20.056Z,1.55
2022-09-20T08:03:46.724Z,1.60
2022-09-20T08:06:16.482Z,0.50
2022-09-20T08:08:45.524Z,1.30
2022-09-20T08:11:18.387Z,1.45
2022-09-20T08:16:41.135Z,0.77
2022-09-20T08:19:08.218Z,0.95
2022-09-20T08:21:35.947Z,0.82
2022-09-20T08:24:06.322Z,1.73
2022-09-20T08:26:41.914Z,0.63
2022-09-20T08:29:09.817Z,1.23
2022-09-20T08:31:38.761Z,1.85
2022-09-20T08:34:06.888Z,1.17
2022-09-20T08:39:57.955Z,0.80
2022-09-20T08:42:37.935Z,1.30
2022-09-20T08:45:23.377Z,1.27
2022-09-20T08:48:05.634Z,1.25
2022-09-20T08:50:34.355Z,1.40
2022-09-20T08:53:04.928Z,0.98
2022-09-20T08:55:41.703Z,1.10
2022-09-20T08:58:10.956Z,1.65
2022-09-20T09:00:39.489Z,0.95
2022-09-20T09:05:59.369Z,1.15
2022-09-20T09:08:37.578Z,0.82
2022-09-20T09:11:13.774Z,0.60
2022-09-20T09:13:53.266Z,1.10
2022-09-20T09:16:28.714Z,0.73
2022-09-20T09:19:33.896Z,0.85
2022-09-20T09:22:03.026Z,1.08
2022-09-20T09:24:31.423Z,0.65
2022-09-20T09:29:56.633Z,0.70
2022-09-20T09:32:49.194Z,0.82
2022-09-20T09:35:30.499Z,1.02
2022-09-20T09:40:31.598Z,0.60
2022-09-20T09:43:01.038Z,1.00
2022-09-20T09:45:38.859Z,0.70
2022-09-20T09:48:26.746Z,1.30
2022-09-20T09:51:09.126Z,0.60
2022-09-20T09:53:36.678Z,0.70
2022-09-20T09:56:22.043Z,0.88
2022-09-20T09:58:59.842Z,1.13
2022-09-20T10:01:48.057Z,0.63
2022-09-20T10:04:22.234Z,0.82
2022-09-20T10:07:28.461Z,1.20
2022-09-20T10:10:08.086Z,1.35
2022-09-20T10:12:52.321Z,0.80
2022-09-20T10:15:30.615Z,1.00
2022-09-20T10:18:27.604Z,0.65
2022-09-20T10:21:16.031Z,1.02
2022-09-20T10:24:03.298Z,0.82
2022-09-20T10:27:07.452Z,0.88
2022-09-20T10:29:46.463Z,0.65
2022-09-20T10:32:37.532Z,0.75
2022-09-20T10:35:14.286Z,0.95
2022-09-20T10:37:54.932Z,0.60
2022-09-20T10:40:52.994Z,1.27
2022-09-20T10:43:34.710Z,1.05
2022-09-20T10:46:33.398Z,0.73
2022-09-20T10:49:34.352Z,0.98
2022-09-20T10:52:08.315Z,1.02
2022-09-20T10:54:44.645Z,1.00
2022-09-20T10:57:49.405Z,1.00
2022-09-20T11:00:24.976Z,0.77
2022-09-20T11:03:29.317Z,0.70
2022-09-20T11:06:11.167Z,0.73
2022-09-20T11:08:40.669Z,0.80
2022-09-20T11:11:13.039Z,1.00
2022-09-20T11:13:43.166Z,0.60
2022-09-20T11:16:18.899Z,0.70
2022-09-20T11:18:54.998Z,0.82
2022-09-20T11:21:33.977Z,0.88
2022-09-20T11:24:22.856Z,1.05
2022-09-20T11:27:00.837Z,0.85
2022-09-20T11:29:32.324Z,0.82
2022-09-20T11:32:17.268Z,0.60
2022-09-20T11:35:16.215Z,1.23
2022-09-20T11:37:48.994Z,1.25
2022-09-20T11:40:27.942Z,0.88
2022-09-20T11:42:58.576Z,1.85
2022-09-20T11:45:28.575Z,0.80
2022-09-20T11:48:22.767Z,0.50
2022-09-20T11:53:51.385Z,2.25
2022-09-20T11:56:24.893Z,1.00
2022-09-20T11:59:07.314Z,1.20
2022-09-20T12:01:43.563Z,0.70
2022-09-20T12:04:43.424Z,1.13
2022-09-20T12:07:24.412Z,1.15
2022-09-20T12:09:56.426Z,1.05
2022-09-20T12:13:18.697Z,1.08
2022-09-20T12:15:45.907Z,1.02
2022-09-20T12:18:38.336Z,1.15
2022-09-20T12:21:06.060Z,1.05
2022-09-20T12:23:38.731Z,1.55
2022-09-20T12:26:25.466Z,1.13
2022-09-20T12:28:54.872Z,1.02
2022-09-20T12:31:21.520Z,1.25
2022-09-20T12:34:00.291Z,1.10
2022-09-20T12:36:30.468Z,1.10
2022-09-20T12:39:17.742Z,1.38
2022-09-20T12:42:02.772Z,1.00
2022-09-20T12:44:35.510Z,1.30
2022-09-20T12:47:03.702Z,1.27
2022-09-20T12:52:42.097Z,1.00
2022-09-20T12:55:12.987Z,1.67
2022-09-20T12:57:43.178Z,2.13
2022-09-20T13:00:40.852Z,2.25
2022-09-20T13:03:29.337Z,1.50
2022-09-20T13:06:14.766Z,2.13
2022-09-20T13:09:01.901Z,1.65
2022-09-20T13:11:42.096Z,1.20
2022-09-20T13:14:20.111Z,1.00
2022-09-20T13:17:12.227Z,1.10
2022-09-20T13:19:44.826Z,1.20
2022-09-20T13:22:26.409Z,0.63
2022-09-20T13:25:03.325Z,1.15
2022-09-20T13:27:34.495Z,1.13
2022-09-20T13:30:20.103Z,0.68
2022-09-20T13:32:50.406Z,0.60
2022-09-20T13:35:16.901Z,1.35
2022-09-20T13:38:00.409Z,0.75
2022-09-20T13:40:40.376Z,1.20
2022-09-20T13:43:23.779Z,1.02
2022-09-20T13:45:57.964Z,1.55
2022-09-20T13:48:35.031Z,1.35
2022-09-20T13:51:02.400Z,1.52
2022-09-20T13:53:41.614Z,1.33
2022-09-20T13:56:19.390Z,1.50
2022-09-20T13:58:46.262Z,1.38
2022-09-20T14:01:44.182Z,1.45
2022-09-20T14:04:21.461Z,1.10
2022-09-20T14:06:49.075Z,1.55
2022-09-20T14:09:34.288Z,1.65
2022-09-20T14:12:01.374Z,1.05
2022-09-20T14:14:28.839Z,0.98
2022-09-20T14:16:57.424Z,1.00
2022-09-20T14:19:31.759Z,1.10
2022-09-20T14:22:05.373Z,1.00
2022-09-20T14:24:37.193Z,1.00
2022-09-20T14:27:17.132Z,0.70
2022-09-20T14:29:55.081Z,0.85
2022-09-20T14:32:21.629Z,0.80
2022-09-20T14:35:05.786Z,0.88
2022-09-20T14:37:44.487Z,0.80
2022-09-20T14:40:31.389Z,0.88
2022-09-20T14:43:03.413Z,0.82
2022-09-20T14:45:35.883Z,1.05
2022-09-20T14:48:24.806Z,1.00
2022-09-20T14:51:16.351Z,1.25
2022-09-20T14:53:44.622Z,1.13
2022-09-20T14:56:13.421Z,1.05
2022-09-20T14:59:10.990Z,0.95
2022-09-20T15:01:44.893Z,0.90
2022-09-20T15:04:25.646Z,0.73
2022-09-20T15:06:53.030Z,1.10
2022-09-20T15:09:21.781Z,0.90
2022-09-20T15:12:00.303Z,0.63
2022-09-20T15:14:26.835Z,1.45
2022-09-20T15:16:53.470Z,1.02
2022-09-20T15:19:20.015Z,0.93
2022-09-20T15:21:48.829Z,0.90
2022-09-20T15:24:17.744Z,0.77
2022-09-20T15:26:45.398Z,1.10
2022-09-20T15:29:18.600Z,1.00
2022-09-20T15:31:47.653Z,0.73
2022-09-20T15:34:15.002Z,1.13
2022-09-20T15:36:41.768Z,0.80
2022-09-20T15:39:09.054Z,1.10
2022-09-20T15:41:35.928Z,1.00
2022-09-20T15:44:06.574Z,1.00
2022-09-20T15:46:33.989Z,1.33
2022-09-20T15:49:02.706Z,0.82
2022-09-20T15:51:32.975Z,0.82
2022-09-20T15:54:06.254Z,0.63
2022-09-20T15:56:35.956Z,1.08
2022-09-20T15:59:08.625Z,1.90
2022-09-20T16:01:38.132Z,1.00
2022-09-20T16:04:07.060Z,1.17
2022-09-20T16:06:34.518Z,0.80
2022-09-20T16:09:01.080Z,0.95
2022-09-20T16:11:29.231Z,1.02
2022-09-20T16:13:57.981Z,1.60
2022-09-20T16:16:26.029Z,0.93
2022-09-20T16:19:13.659Z,0.90
2022-09-20T16:21:43.254Z,1.08
2022-09-20T16:24:12.374Z,0.60
2022-09-20T16:26:42.666Z,0.90
2022-09-20T16:29:18.710Z,1.05
2022-09-20T16:31:50.095Z,0.82
2022-09-20T16:34:23.913Z,1.20
2022-09-20T16:36:53.078Z,1.00
2022-09-20T16:39:21.034Z,1.20
2022-09-20T16:41:50.064Z,1.13
2022-09-20T16:44:16.601Z,1.35
2022-09-20T16:46:44.531Z,1.67
2022-09-20T16:49:20.595Z,1.00
2022-09-20T16:51:47.357Z,0.98
2022-09-20T16:54:16.173Z,1.38
2022-09-20T16:57:01.349Z,0.85
2022-09-20T16:59:28.027Z,1.00
2022-09-20T17:03:00.288Z,1.17
2022-09-20T17:05:29.741Z,0.73
2022-09-20T17:08:03.915Z,0.98
2022-09-20T17:10:33.559Z,1.30
2022-09-20T17:13:00.183Z,1.30
2022-09-20T17:15:26.840Z,1.15
2022-09-20T17:17:53.389Z,0.88
2022-09-20T17:20:20.267Z,1.05
2022-09-20T17:22:46.826Z,1.48
2022-09-20T17:25:14.156Z,0.93
2022-09-20T17:27:40.725Z,1.60
2022-09-20T17:30:10.075Z,0.85
2022-09-20T17:32:37.249Z,0.98
2022-09-20T17:35:07.272Z,1.20
2022-09-20T17:37:34.984Z,0.80
2022-09-20T17:40:02.801Z,1.08
2022-09-20T17:42:31.801Z,1.20
2022-09-20T17:44:58.443Z,1.10
2022-09-20T17:47:27.659Z,1.20
2022-09-20T17:49:55.938Z,0.82
2022-09-20T17:54:51.562Z,1.27
2022-09-20T17:57:18.225Z,0.77
2022-09-20T17:59:51.043Z,1.10
2022-09-20T18:02:17.706Z,1.25
2022-09-20T18:04:48.970Z,1.30
2022-09-20T18:07:15.636Z,1.20
2022-09-20T18:09:42.160Z,1.10
2022-09-20T18:12:09.825Z,1.55
2022-09-20T18:14:37.547Z,1.10
2022-09-20T18:17:04.505Z,1.15
2022-09-20T18:19:34.149Z,0.80
2022-09-20T18:22:04.063Z,1.00
2022-09-20T18:24:31.389Z,1.33
2022-09-20T18:26:57.940Z,1.30
2022-09-20T18:29:25.002Z,1.45
2022-09-20T18:31:54.337Z,0.90
2022-09-20T18:34:26.718Z,0.70
2022-09-20T18:36:55.307Z,1.10
2022-09-20T18:39:21.999Z,1.33
2022-09-20T18:41:50.270Z,1.27
2022-09-20T18:46:46.450Z,1.17
2022-09-20T18:49:17.503Z,1.00
2022-09-20T18:51:44.729Z,0.80
2022-09-20T18:54:12.108Z,1.00
2022-09-20T18:56:40.771Z,0.93
2022-09-20T18:59:18.497Z,1.10
2022-09-20T19:02:08.212Z,1.40
2022-09-20T19:04:34.699Z,1.50
2022-09-20T19:07:10.702Z,1.20
2022-09-20T19:09:52.845Z,1.90
2022-09-20T19:12:41.478Z,1.55
2022-09-20T19:15:07.919Z,1.35
2022-09-20T19:18:01.940Z,1.17
2022-09-20T19:20:40.652Z,1.77
2022-09-20T19:23:51.408Z,1.80
2022-09-20T19:26:28.252Z,1.48
2022-09-20T19:28:57.443Z,1.27
2022-09-20T19:31:27.194Z,1.50
2022-09-20T19:33:55.801Z,1.48
2022-09-20T19:36:38.527Z,1.30
2022-09-20T19:39:12.256Z,1.45
2022-09-20T19:41:58.058Z,1.65
2022-09-20T19:44:51.919Z,1.33
2022-09-20T19:47:38.088Z,1.35
2022-09-20T19:50:27.846Z,2.00
2022-09-20T19:52:58.349Z,1.70
2022-09-20T19:55:25.343Z,1.83
2022-09-20T19:57:52.151Z,1.63
2022-09-20T20:00:21.027Z,1.65
2022-09-20T20:02:48.209Z,1.55
2022-09-20T20:05:19.993Z,2.15
2022-09-20T20:07:51.041Z,1.75
2022-09-20T20:10:26.711Z,1.52
2022-09-20T20:12:58.753Z,1.95
2022-09-20T20:15:43.551Z,1.00
2022-09-20T20:18:27.755Z,1.48
2022-09-20T20:20:56.828Z,1.63
2022-09-20T20:23:37.823Z,1.30
2022-09-20T20:26:19.423Z,1.15
2022-09-20T20:28:46.385Z,2.30
2022-09-20T20:31:13.482Z,1.70
2022-09-20T20:33:40.649Z,1.50
2022-09-20T20:36:11.934Z,2.28
2022-09-20T20:38:40.278Z,1.50
2022-09-20T20:41:11.841Z,1.88
2022-09-20T20:43:40.853Z,1.20
2022-09-20T20:46:10.634Z,1.50
2022-09-20T20:48:37.351Z,1.13
2022-09-20T20:51:03.940Z,1.63
2022-09-20T20:53:33.056Z,1.20
2022-09-20T20:56:07.171Z,1.60
2022-09-20T20:58:36.192Z,1.73
2022-09-20T21:01:08.358Z,1.73
2022-09-20T21:03:35.286Z,1.55
2022-09-20T21:06:04.341Z,1.58
2022-09-20T21:08:33.093Z,1.30
2022-09-20T21:11:11.596Z,1.58
2022-09-20T21:13:39.455Z,1.27
2022-09-20T21:16:14.010Z,1.52
2022-09-20T21:18:42.606Z,1.60
2022-09-20T21:21:18.022Z,1.50
2022-09-20T21:23:46.735Z,1.90
2022-09-20T21:26:15.731Z,2.40
2022-09-20T21:28:44.928Z,2.60
2022-09-20T21:31:13.277Z,2.90
2022-09-20T21:33:41.472Z,7.07
2022-09-20T21:36:12.765Z,6.10
2022-09-20T21:38:40.602Z,4.32
2022-09-20T21:41:12.739Z,4.70
2022-09-20T21:43:43.866Z,7.80
2022-09-20T21:46:28.367Z,9.18
2022-09-20T21:48:56.813Z,9.07
2022-09-20T21:51:24.801Z,9.80
2022-09-20T21:53:59.242Z,9.30
2022-09-20T21:56:27.942Z,8.52
2022-09-20T21:58:55.889Z,9.45
2022-09-20T22:01:27.669Z,8.90
2022-09-20T22:04:01.158Z,9.32
2022-09-20T22:06:33.804Z,8.48
2022-09-20T22:09:03.426Z,9.02
2022-09-20T22:11:32.751Z,8.98
2022-09-20T22:14:00.041Z,8.02
2022-09-20T22:16:29.335Z,9.77
2022-09-20T22:18:56.694Z,8.20
2022-09-20T22:21:26.772Z,8.07
2022-09-20T22:23:58.448Z,7.93
2022-09-20T22:26:27.932Z,6.97
2022-09-20T22:28:54.546Z,8.63
2022-09-20T22:31:26.236Z,7.30
2022-09-20T22:33:55.666Z,5.53
2022-09-20T22:36:24.577Z,5.20
2022-09-20T22:38:52.509Z,3.85
2022-09-20T22:41:20.250Z,3.38
2022-09-20T22:43:47.083Z,3.47
2022-09-20T22:46:16.321Z,2.70
2022-09-20T22:48:43.834Z,2.58
2022-09-20T22:51:32.279Z,2.08
2022-09-20T22:53:59.921Z,2.13
2022-09-20T22:56:30.420Z,1.10
2022-09-20T22:59:00.147Z,1.02
2022-09-20T23:01:29.656Z,1.20
2022-09-20T23:03:59.361Z,1.05
2022-09-20T23:06:29.352Z,1.02
2022-09-20T23:08:57.696Z,1.20
2022-09-20T23:11:25.230Z,1.02
2022-09-20T23:13:57.227Z,1.17
2022-09-20T23:16:26.657Z,1.30
2022-09-20T23:18:54.111Z,1.85
2022-09-20T23:21:21.174Z,2.90
2022-09-20T23:23:53.540Z,3.53
2022-09-20T23:26:21.048Z,3.38
2022-09-20T23:28:55.180Z,3.97
2022-09-20T23:31:22.702Z,3.72
2022-09-20T23:33:51.550Z,4.38
2022-09-20T23:36:19.379Z,3.85
2022-09-20T23:38:47.166Z,4.97
2022-09-20T23:41:15.567Z,5.88
2022-09-20T23:43:42.673Z,6.00
2022-09-20T23:46:10.877Z,5.88
2022-09-20T23:48:41.471Z,7.07
2022-09-20T23:51:10.233Z,8.73
2022-09-20T23:53:37.072Z,7.90
2022-09-20T23:56:06.933Z,7.40
2022-09-20T23:58:37.517Z,8.50
